sensor_id;sensor_type;location;lat;lon;timestamp;P1;durP1;ratioP1;P2;durP2;ratioP2
5622;SDS011;2833;50.432;10.706;2023-04-19T00:01:04;9.40;;;5.03;;
5622;SDS011;2833;50.432;10.706;2023-04-19T00:03:29;8.00;;;5.50;;
5622;SDS011;2833;50.432;10.706;2023-04-19T00:05:55;8.33;;;5.63;;
5622;SDS011;2833;50.432;10.706;2023-04-19T00:08:23;7.53;;;5.50;;
5622;SDS011;2833;50.432;10.706;2023-04-19T00:10:48;8.13;;;6.50;;
5622;SDS011;2833;50.432;10.706;2023-04-19T00:13:14;6.23;;;4.90;;
5622;SDS011;2833;50.432;10.706;2023-04-19T00:15:39;7.40;;;4.80;;
5622;SDS011;2833;50.432;10.706;2023-04-19T00:18:05;7.60;;;5.00;;
5622;SDS011;2833;50.432;10.706;2023-04-19T00:20:30;6.00;;;5.30;;
5622;SDS011;2833;50.432;10.706;2023-04-19T00:22:55;5.73;;;4.47;;
5622;SDS011;2833;50.432;10.706;2023-04-19T00:25:22;5.77;;;5.20;;
5622;SDS011;2833;50.432;10.706;2023-04-19T00:27:47;5.87;;;4.77;;
5622;SDS011;2833;50.432;10.706;2023-04-19T00:30:12;6.20;;;4.70;;
5622;SDS011;2833;50.432;10.706;2023-04-19T00:32:38;6.17;;;4.30;;
5622;SDS011;2833;50.432;10.706;2023-04-19T00:35:03;6.07;;;4.70;;
5622;SDS011;2833;50.432;10.706;2023-04-19T00:37:28;7.13;;;5.07;;
5622;SDS011;2833;50.432;10.706;2023-04-19T00:39:53;7.77;;;5.80;;
5622;SDS011;2833;50.432;10.706;2023-04-19T00:42:19;8.53;;;5.73;;
5622;SDS011;2833;50.432;10.706;2023-04-19T00:44:44;8.73;;;6.10;;
5622;SDS011;2833;50.432;10.706;2023-04-19T00:47:09;8.70;;;5.53;;
5622;SDS011;2833;50.432;10.706;2023-04-19T00:49:34;8.30;;;6.40;;
5622;SDS011;2833;50.432;10.706;2023-04-19T00:51:59;10.27;;;7.13;;
5622;SDS011;2833;50.432;10.706;2023-04-19T00:54:24;9.30;;;6.93;;
5622;SDS011;2833;50.432;10.706;2023-04-19T00:56:50;9.70;;;5.77;;
5622;SDS011;2833;50.432;10.706;2023-04-19T00:59:15;10.93;;;7.53;;
5622;SDS011;2833;50.432;10.706;2023-04-19T01:01:41;10.77;;;7.40;;
5622;SDS011;2833;50.432;10.706;2023-04-19T01:04:06;9.17;;;7.30;;
5622;SDS011;2833;50.432;10.706;2023-04-19T01:06:32;16.93;;;7.00;;
5622;SDS011;2833;50.432;10.706;2023-04-19T01:08:58;10.97;;;7.00;;
5622;SDS011;2833;50.432;10.706;2023-04-19T01:11:23;10.47;;;7.07;;
5622;SDS011;2833;50.432;10.706;2023-04-19T01:13:49;12.00;;;8.03;;
5622;SDS011;2833;50.432;10.706;2023-04-19T01:16:14;8.50;;;6.77;;
5622;SDS011;2833;50.432;10.706;2023-04-19T01:18:39;9.10;;;7.17;;
5622;SDS011;2833;50.432;10.706;2023-04-19T01:21:05;11.67;;;8.00;;
5622;SDS011;2833;50.432;10.706;2023-04-19T01:23:31;13.10;;;7.97;;
5622;SDS011;2833;50.432;10.706;2023-04-19T01:25:56;11.00;;;8.07;;
5622;SDS011;2833;50.432;10.706;2023-04-19T01:28:21;11.10;;;7.63;;
5622;SDS011;2833;50.432;10.706;2023-04-19T01:30:46;11.70;;;6.80;;
5622;SDS011;2833;50.432;10.706;2023-04-19T01:33:14;9.23;;;7.40;;
5622;SDS011;2833;50.432;10.706;2023-04-19T01:35:40;13.23;;;8.33;;
5622;SDS011;2833;50.432;10.706;2023-04-19T01:38:05;13.33;;;8.70;;
5622;SDS011;2833;50.432;10.706;2023-04-19T01:40:31;12.40;;;8.63;;
5622;SDS011;2833;50.432;10.706;2023-04-19T01:42:56;13.00;;;9.20;;
5622;SDS011;2833;50.432;10.706;2023-04-19T01:45:21;13.57;;;9.20;;
5622;SDS011;2833;50.432;10.706;2023-04-19T01:47:46;14.27;;;10.17;;
5622;SDS011;2833;50.432;10.706;2023-04-19T01:50:12;13.80;;;9.70;;
5622;SDS011;2833;50.432;10.706;2023-04-19T01:52:37;16.10;;;9.30;;
5622;SDS011;2833;50.432;10.706;2023-04-19T01:55:02;13.17;;;9.00;;
5622;SDS011;2833;50.432;10.706;2023-04-19T01:57:27;12.50;;;8.00;;
5622;SDS011;2833;50.432;10.706;2023-04-19T01:59:53;15.17;;;9.60;;
5622;SDS011;2833;50.432;10.706;2023-04-19T02:02:18;13.83;;;9.70;;
5622;SDS011;2833;50.432;10.706;2023-04-19T02:04:43;18.57;;;11.63;;
5622;SDS011;2833;50.432;10.706;2023-04-19T02:07:08;18.50;;;12.23;;
5622;SDS011;2833;50.432;10.706;2023-04-19T02:09:34;20.10;;;12.63;;
5622;SDS011;2833;50.432;10.706;2023-04-19T02:12:00;14.53;;;8.87;;
5622;SDS011;2833;50.432;10.706;2023-04-19T02:14:25;17.17;;;10.17;;
5622;SDS011;2833;50.432;10.706;2023-04-19T02:16:50;17.37;;;11.47;;
5622;SDS011;2833;50.432;10.706;2023-04-19T02:19:15;15.93;;;10.60;;
5622;SDS011;2833;50.432;10.706;2023-04-19T02:21:41;16.73;;;11.80;;
5622;SDS011;2833;50.432;10.706;2023-04-19T02:24:06;19.60;;;12.50;;
5622;SDS011;2833;50.432;10.706;2023-04-19T02:26:31;18.37;;;11.43;;
5622;SDS011;2833;50.432;10.706;2023-04-19T02:28:56;20.97;;;10.70;;
5622;SDS011;2833;50.432;10.706;2023-04-19T02:31:22;17.03;;;11.37;;
5622;SDS011;2833;50.432;10.706;2023-04-19T02:33:47;13.17;;;8.00;;
5622;SDS011;2833;50.432;10.706;2023-04-19T02:36:12;20.80;;;12.50;;
5622;SDS011;2833;50.432;10.706;2023-04-19T02:38:37;19.43;;;11.83;;
5622;SDS011;2833;50.432;10.706;2023-04-19T02:41:03;12.50;;;9.00;;
5622;SDS011;2833;50.432;10.706;2023-04-19T02:43:30;16.27;;;10.30;;
5622;SDS011;2833;50.432;10.706;2023-04-19T02:45:55;21.20;;;12.77;;
5622;SDS011;2833;50.432;10.706;2023-04-19T02:48:20;15.60;;;10.00;;
5622;SDS011;2833;50.432;10.706;2023-04-19T02:50:45;17.47;;;11.20;;
5622;SDS011;2833;50.432;10.706;2023-04-19T02:53:10;15.03;;;10.90;;
5622;SDS011;2833;50.432;10.706;2023-04-19T02:55:36;20.70;;;11.60;;
5622;SDS011;2833;50.432;10.706;2023-04-19T02:58:01;17.27;;;10.20;;
5622;SDS011;2833;50.432;10.706;2023-04-19T03:00:26;11.17;;;7.97;;
5622;SDS011;2833;50.432;10.706;2023-04-19T03:02:51;19.77;;;11.00;;
5622;SDS011;2833;50.432;10.706;2023-04-19T03:05:16;18.93;;;9.87;;
5622;SDS011;2833;50.432;10.706;2023-04-19T03:07:42;11.73;;;8.37;;
5622;SDS011;2833;50.432;10.706;2023-04-19T03:10:07;12.53;;;8.60;;
5622;SDS011;2833;50.432;10.706;2023-04-19T03:12:32;11.57;;;7.00;;
5622;SDS011;2833;50.432;10.706;2023-04-19T03:14:57;11.10;;;5.30;;
5622;SDS011;2833;50.432;10.706;2023-04-19T03:17:23;8.57;;;6.60;;
5622;SDS011;2833;50.432;10.706;2023-04-19T03:19:48;15.53;;;10.53;;
5622;SDS011;2833;50.432;10.706;2023-04-19T03:22:13;10.93;;;8.53;;
5622;SDS011;2833;50.432;10.706;2023-04-19T03:24:38;14.40;;;9.30;;
5622;SDS011;2833;50.432;10.706;2023-04-19T03:27:03;10.70;;;4.67;;
5622;SDS011;2833;50.432;10.706;2023-04-19T03:29:28;15.60;;;9.93;;
5622;SDS011;2833;50.432;10.706;2023-04-19T03:31:54;12.53;;;9.37;;
5622;SDS011;2833;50.432;10.706;2023-04-19T03:34:19;10.50;;;8.40;;
5622;SDS011;2833;50.432;10.706;2023-04-19T03:36:44;12.60;;;9.13;;
5622;SDS011;2833;50.432;10.706;2023-04-19T03:39:09;13.83;;;9.83;;
5622;SDS011;2833;50.432;10.706;2023-04-19T03:41:34;13.13;;;7.93;;
5622;SDS011;2833;50.432;10.706;2023-04-19T03:44:00;10.40;;;7.50;;
5622;SDS011;2833;50.432;10.706;2023-04-19T03:46:25;9.60;;;6.83;;
5622;SDS011;2833;50.432;10.706;2023-04-19T03:48:50;10.00;;;6.40;;
5622;SDS011;2833;50.432;10.706;2023-04-19T03:51:16;11.97;;;8.40;;
5622;SDS011;2833;50.432;10.706;2023-04-19T03:53:41;9.47;;;7.30;;
5622;SDS011;2833;50.432;10.706;2023-04-19T03:56:07;8.00;;;5.70;;
5622;SDS011;2833;50.432;10.706;2023-04-19T03:58:32;9.80;;;6.43;;
5622;SDS011;2833;50.432;10.706;2023-04-19T04:00:57;9.23;;;6.67;;
5622;SDS011;2833;50.432;10.706;2023-04-19T04:03:22;9.27;;;6.60;;
5622;SDS011;2833;50.432;10.706;2023-04-19T04:05:48;10.27;;;6.93;;
5622;SDS011;2833;50.432;10.706;2023-04-19T04:08:13;8.67;;;6.80;;
5622;SDS011;2833;50.432;10.706;2023-04-19T04:10:38;12.00;;;5.97;;
5622;SDS011;2833;50.432;10.706;2023-04-19T04:13:03;11.20;;;7.13;;
5622;SDS011;2833;50.432;10.706;2023-04-19T04:15:28;9.97;;;6.77;;
5622;SDS011;2833;50.432;10.706;2023-04-19T04:17:54;8.83;;;5.80;;
5622;SDS011;2833;50.432;10.706;2023-04-19T04:20:19;7.57;;;5.00;;
5622;SDS011;2833;50.432;10.706;2023-04-19T04:22:44;9.60;;;6.00;;
5622;SDS011;2833;50.432;10.706;2023-04-19T04:25:13;8.53;;;5.93;;
5622;SDS011;2833;50.432;10.706;2023-04-19T04:27:39;11.20;;;6.57;;
5622;SDS011;2833;50.432;10.706;2023-04-19T04:30:05;8.43;;;6.60;;
5622;SDS011;2833;50.432;10.706;2023-04-19T04:32:31;8.33;;;6.10;;
5622;SDS011;2833;50.432;10.706;2023-04-19T04:35:00;13.30;;;5.93;;
5622;SDS011;2833;50.432;10.706;2023-04-19T04:37:25;8.80;;;5.57;;
5622;SDS011;2833;50.432;10.706;2023-04-19T04:39:50;9.77;;;5.67;;
5622;SDS011;2833;50.432;10.706;2023-04-19T04:42:16;8.93;;;6.13;;
5622;SDS011;2833;50.432;10.706;2023-04-19T04:44:41;8.37;;;6.30;;
5622;SDS011;2833;50.432;10.706;2023-04-19T04:47:06;10.77;;;6.57;;
5622;SDS011;2833;50.432;10.706;2023-04-19T04:49:31;7.40;;;5.50;;
5622;SDS011;2833;50.432;10.706;2023-04-19T04:51:57;12.53;;;6.03;;
5622;SDS011;2833;50.432;10.706;2023-04-19T04:54:22;7.90;;;6.00;;
5622;SDS011;2833;50.432;10.706;2023-04-19T04:56:47;8.00;;;6.30;;
5622;SDS011;2833;50.432;10.706;2023-04-19T04:59:13;11.40;;;6.30;;
5622;SDS011;2833;50.432;10.706;2023-04-19T05:01:38;8.00;;;5.53;;
5622;SDS011;2833;50.432;10.706;2023-04-19T05:04:03;9.47;;;6.20;;
5622;SDS011;2833;50.432;10.706;2023-04-19T05:06:29;7.30;;;4.80;;
5622;SDS011;2833;50.432;10.706;2023-04-19T05:08:54;8.67;;;5.70;;
5622;SDS011;2833;50.432;10.706;2023-04-19T05:11:19;12.17;;;7.80;;
5622;SDS011;2833;50.432;10.706;2023-04-19T05:13:44;16.90;;;7.60;;
5622;SDS011;2833;50.432;10.706;2023-04-19T05:16:09;10.30;;;6.90;;
5622;SDS011;2833;50.432;10.706;2023-04-19T05:18:35;9.50;;;7.30;;
5622;SDS011;2833;50.432;10.706;2023-04-19T05:21:00;10.03;;;7.07;;
5622;SDS011;2833;50.432;10.706;2023-04-19T05:23:25;10.20;;;7.07;;
5622;SDS011;2833;50.432;10.706;2023-04-19T05:25:50;11.07;;;7.40;;
5622;SDS011;2833;50.432;10.706;2023-04-19T05:28:15;11.37;;;7.07;;
5622;SDS011;2833;50.432;10.706;2023-04-19T05:30:40;11.37;;;7.77;;
5622;SDS011;2833;50.432;10.706;2023-04-19T05:33:06;9.87;;;7.47;;
5622;SDS011;2833;50.432;10.706;2023-04-19T05:35:31;9.53;;;6.53;;
5622;SDS011;2833;50.432;10.706;2023-04-19T05:37:56;9.80;;;6.13;;
5622;SDS011;2833;50.432;10.706;2023-04-19T05:40:21;8.20;;;6.10;;
5622;SDS011;2833;50.432;10.706;2023-04-19T05:42:48;9.67;;;5.67;;
5622;SDS011;2833;50.432;10.706;2023-04-19T05:45:14;7.83;;;5.40;;
5622;SDS011;2833;50.432;10.706;2023-04-19T05:47:39;6.90;;;5.37;;
5622;SDS011;2833;50.432;10.706;2023-04-19T05:50:05;9.20;;;6.03;;
5622;SDS011;2833;50.432;10.706;2023-04-19T05:52:30;10.23;;;5.63;;
5622;SDS011;2833;50.432;10.706;2023-04-19T05:54:55;9.23;;;6.07;;
5622;SDS011;2833;50.432;10.706;2023-04-19T05:57:20;9.83;;;5.60;;
5622;SDS011;2833;50.432;10.706;2023-04-19T05:59:46;8.60;;;6.20;;
5622;SDS011;2833;50.432;10.706;2023-04-19T06:02:11;8.60;;;5.80;;
5622;SDS011;2833;50.432;10.706;2023-04-19T06:04:36;8.73;;;5.63;;
5622;SDS011;2833;50.432;10.706;2023-04-19T06:07:01;6.90;;;5.20;;
5622;SDS011;2833;50.432;10.706;2023-04-19T06:11:57;10.87;;;6.73;;
5622;SDS011;2833;50.432;10.706;2023-04-19T06:14:22;9.30;;;5.50;;
5622;SDS011;2833;50.432;10.706;2023-04-19T06:16:48;8.00;;;4.10;;
5622;SDS011;2833;50.432;10.706;2023-04-19T06:19:13;10.77;;;6.80;;
5622;SDS011;2833;50.432;10.706;2023-04-19T06:21:38;8.27;;;5.23;;
5622;SDS011;2833;50.432;10.706;2023-04-19T06:24:04;6.37;;;4.90;;
5622;SDS011;2833;50.432;10.706;2023-04-19T06:26:30;11.47;;;6.10;;
5622;SDS011;2833;50.432;10.706;2023-04-19T06:28:55;5.20;;;2.97;;
5622;SDS011;2833;50.432;10.706;2023-04-19T06:31:20;7.73;;;5.80;;
5622;SDS011;2833;50.432;10.706;2023-04-19T06:33:45;7.30;;;5.40;;
5622;SDS011;2833;50.432;10.706;2023-04-19T06:36:10;7.20;;;6.13;;
5622;SDS011;2833;50.432;10.706;2023-04-19T06:38:36;6.87;;;4.63;;
5622;SDS011;2833;50.432;10.706;2023-04-19T06:41:02;3.93;;;3.37;;
5622;SDS011;2833;50.432;10.706;2023-04-19T06:43:27;9.17;;;6.70;;
5622;SDS011;2833;50.432;10.706;2023-04-19T06:45:56;9.63;;;5.93;;
5622;SDS011;2833;50.432;10.706;2023-04-19T06:48:22;7.73;;;6.03;;
5622;SDS011;2833;50.432;10.706;2023-04-19T06:50:47;9.50;;;6.77;;
5622;SDS011;2833;50.432;10.706;2023-04-19T06:53:12;8.50;;;5.13;;
5622;SDS011;2833;50.432;10.706;2023-04-19T06:55:37;10.37;;;5.43;;
5622;SDS011;2833;50.432;10.706;2023-04-19T06:58:02;16.80;;;8.57;;
5622;SDS011;2833;50.432;10.706;2023-04-19T07:00:27;7.70;;;5.80;;
5622;SDS011;2833;50.432;10.706;2023-04-19T07:02:53;9.00;;;5.93;;
5622;SDS011;2833;50.432;10.706;2023-04-19T07:05:18;9.63;;;6.90;;
5622;SDS011;2833;50.432;10.706;2023-04-19T07:07:43;9.70;;;6.80;;
5622;SDS011;2833;50.432;10.706;2023-04-19T07:10:08;10.20;;;6.37;;
5622;SDS011;2833;50.432;10.706;2023-04-19T07:12:33;16.73;;;10.37;;
5622;SDS011;2833;50.432;10.706;2023-04-19T07:14:58;8.77;;;6.23;;
5622;SDS011;2833;50.432;10.706;2023-04-19T07:17:24;2.63;;;2.43;;
5622;SDS011;2833;50.432;10.706;2023-04-19T07:19:49;7.33;;;4.20;;
5622;SDS011;2833;50.432;10.706;2023-04-19T07:22:14;7.77;;;4.23;;
5622;SDS011;2833;50.432;10.706;2023-04-19T07:24:39;13.87;;;9.07;;
5622;SDS011;2833;50.432;10.706;2023-04-19T07:27:06;9.30;;;6.10;;
5622;SDS011;2833;50.432;10.706;2023-04-19T07:29:33;13.40;;;7.73;;
5622;SDS011;2833;50.432;10.706;2023-04-19T07:31:58;5.40;;;3.97;;
5622;SDS011;2833;50.432;10.706;2023-04-19T07:34:25;13.57;;;8.30;;
5622;SDS011;2833;50.432;10.706;2023-04-19T07:36:50;8.03;;;5.13;;
5622;SDS011;2833;50.432;10.706;2023-04-19T07:39:15;9.40;;;6.27;;
5622;SDS011;2833;50.432;10.706;2023-04-19T07:41:40;16.03;;;8.73;;
5622;SDS011;2833;50.432;10.706;2023-04-19T07:44:06;16.67;;;10.30;;
5622;SDS011;2833;50.432;10.706;2023-04-19T07:46:31;17.07;;;8.40;;
5622;SDS011;2833;50.432;10.706;2023-04-19T07:48:56;12.70;;;7.60;;
5622;SDS011;2833;50.432;10.706;2023-04-19T07:51:21;26.03;;;9.30;;
5622;SDS011;2833;50.432;10.706;2023-04-19T07:53:48;12.23;;;6.97;;
5622;SDS011;2833;50.432;10.706;2023-04-19T07:56:14;16.30;;;9.30;;
5622;SDS011;2833;50.432;10.706;2023-04-19T07:58:39;13.60;;;8.67;;
5622;SDS011;2833;50.432;10.706;2023-04-19T08:01:05;10.80;;;6.00;;
5622;SDS011;2833;50.432;10.706;2023-04-19T08:03:32;12.70;;;7.67;;
5622;SDS011;2833;50.432;10.706;2023-04-19T08:05:59;14.60;;;9.00;;
5622;SDS011;2833;50.432;10.706;2023-04-19T08:08:24;14.23;;;8.37;;
5622;SDS011;2833;50.432;10.706;2023-04-19T08:10:49;15.57;;;7.43;;
5622;SDS011;2833;50.432;10.706;2023-04-19T08:13:15;11.33;;;6.20;;
5622;SDS011;2833;50.432;10.706;2023-04-19T08:15:40;11.73;;;7.13;;
5622;SDS011;2833;50.432;10.706;2023-04-19T08:18:06;10.80;;;6.00;;
5622;SDS011;2833;50.432;10.706;2023-04-19T08:20:31;10.93;;;6.10;;
5622;SDS011;2833;50.432;10.706;2023-04-19T08:22:58;11.27;;;5.27;;
5622;SDS011;2833;50.432;10.706;2023-04-19T08:25:23;9.03;;;5.90;;
5622;SDS011;2833;50.432;10.706;2023-04-19T08:27:53;6.53;;;4.87;;
5622;SDS011;2833;50.432;10.706;2023-04-19T08:30:18;9.37;;;4.47;;
5622;SDS011;2833;50.432;10.706;2023-04-19T08:32:43;8.60;;;5.67;;
5622;SDS011;2833;50.432;10.706;2023-04-19T08:35:08;5.47;;;3.30;;
5622;SDS011;2833;50.432;10.706;2023-04-19T08:37:34;6.40;;;4.13;;
5622;SDS011;2833;50.432;10.706;2023-04-19T08:39:59;5.23;;;3.27;;
5622;SDS011;2833;50.432;10.706;2023-04-19T08:42:24;4.73;;;3.67;;
5622;SDS011;2833;50.432;10.706;2023-04-19T08:44:50;5.83;;;3.73;;
5622;SDS011;2833;50.432;10.706;2023-04-19T08:47:16;7.33;;;3.60;;
5622;SDS011;2833;50.432;10.706;2023-04-19T08:49:42;10.10;;;6.20;;
5622;SDS011;2833;50.432;10.706;2023-04-19T08:52:08;7.17;;;4.53;;
5622;SDS011;2833;50.432;10.706;2023-04-19T08:54:34;4.97;;;3.57;;
5622;SDS011;2833;50.432;10.706;2023-04-19T08:56:59;4.00;;;3.60;;
5622;SDS011;2833;50.432;10.706;2023-04-19T08:59:25;4.90;;;4.17;;
5622;SDS011;2833;50.432;10.706;2023-04-19T09:01:51;5.47;;;3.67;;
5622;SDS011;2833;50.432;10.706;2023-04-19T09:04:16;5.80;;;3.40;;
5622;SDS011;2833;50.432;10.706;2023-04-19T09:06:41;4.90;;;3.50;;
5622;SDS011;2833;50.432;10.706;2023-04-19T09:09:13;3.40;;;2.87;;
5622;SDS011;2833;50.432;10.706;2023-04-19T09:11:40;7.80;;;4.00;;
5622;SDS011;2833;50.432;10.706;2023-04-19T09:14:06;3.83;;;3.13;;
5622;SDS011;2833;50.432;10.706;2023-04-19T09:16:31;4.43;;;2.10;;
5622;SDS011;2833;50.432;10.706;2023-04-19T09:18:56;4.03;;;3.30;;
5622;SDS011;2833;50.432;10.706;2023-04-19T09:21:27;2.87;;;2.50;;
5622;SDS011;2833;50.432;10.706;2023-04-19T09:23:52;5.80;;;4.10;;
5622;SDS011;2833;50.432;10.706;2023-04-19T09:26:17;4.87;;;3.37;;
5622;SDS011;2833;50.432;10.706;2023-04-19T09:28:54;3.40;;;3.10;;
5622;SDS011;2833;50.432;10.706;2023-04-19T09:31:19;4.87;;;3.97;;
5622;SDS011;2833;50.432;10.706;2023-04-19T09:33:44;5.57;;;4.23;;
5622;SDS011;2833;50.432;10.706;2023-04-19T09:36:09;4.00;;;3.07;;
5622;SDS011;2833;50.432;10.706;2023-04-19T09:38:47;4.87;;;4.07;;
5622;SDS011;2833;50.432;10.706;2023-04-19T09:41:13;4.87;;;3.70;;
5622;SDS011;2833;50.432;10.706;2023-04-19T09:43:38;5.50;;;3.50;;
5622;SDS011;2833;50.432;10.706;2023-04-19T09:46:03;5.70;;;3.50;;
5622;SDS011;2833;50.432;10.706;2023-04-19T09:48:28;5.07;;;3.60;;
5622;SDS011;2833;50.432;10.706;2023-04-19T09:50:54;6.93;;;4.17;;
5622;SDS011;2833;50.432;10.706;2023-04-19T09:53:20;5.67;;;3.00;;
5622;SDS011;2833;50.432;10.706;2023-04-19T09:55:46;4.93;;;3.63;;
5622;SDS011;2833;50.432;10.706;2023-04-19T09:58:11;5.70;;;3.10;;
5622;SDS011;2833;50.432;10.706;2023-04-19T10:00:37;4.10;;;3.33;;
5622;SDS011;2833;50.432;10.706;2023-04-19T10:03:03;3.33;;;2.90;;
5622;SDS011;2833;50.432;10.706;2023-04-19T10:05:29;2.70;;;2.43;;
5622;SDS011;2833;50.432;10.706;2023-04-19T10:07:54;5.53;;;4.60;;
5622;SDS011;2833;50.432;10.706;2023-04-19T10:10:23;3.67;;;3.27;;
5622;SDS011;2833;50.432;10.706;2023-04-19T10:12:50;4.47;;;3.70;;
5622;SDS011;2833;50.432;10.706;2023-04-19T10:15:16;4.63;;;3.17;;
5622;SDS011;2833;50.432;10.706;2023-04-19T10:17:43;4.83;;;3.67;;
5622;SDS011;2833;50.432;10.706;2023-04-19T10:20:09;3.20;;;2.90;;
5622;SDS011;2833;50.432;10.706;2023-04-19T10:22:36;3.00;;;2.70;;
5622;SDS011;2833;50.432;10.706;2023-04-19T10:27:35;4.10;;;3.30;;
5622;SDS011;2833;50.432;10.706;2023-04-19T10:30:00;3.90;;;3.30;;
5622;SDS011;2833;50.432;10.706;2023-04-19T10:32:40;5.73;;;3.70;;
5622;SDS011;2833;50.432;10.706;2023-04-19T10:35:06;4.03;;;3.63;;
5622;SDS011;2833;50.432;10.706;2023-04-19T10:37:31;4.47;;;3.57;;
5622;SDS011;2833;50.432;10.706;2023-04-19T10:39:57;2.63;;;2.20;;
5622;SDS011;2833;50.432;10.706;2023-04-19T10:42:22;5.80;;;3.23;;
5622;SDS011;2833;50.432;10.706;2023-04-19T10:47:40;4.43;;;3.03;;
5622;SDS011;2833;50.432;10.706;2023-04-19T10:50:06;6.27;;;3.33;;
5622;SDS011;2833;50.432;10.706;2023-04-19T10:52:31;3.83;;;3.47;;
5622;SDS011;2833;50.432;10.706;2023-04-19T10:54:56;5.97;;;3.47;;
5622;SDS011;2833;50.432;10.706;2023-04-19T10:57:21;2.47;;;2.23;;
5622;SDS011;2833;50.432;10.706;2023-04-19T11:00:16;2.53;;;2.03;;
5622;SDS011;2833;50.432;10.706;2023-04-19T11:02:34;5.90;;;2.53;;
5622;SDS011;2833;50.432;10.706;2023-04-19T11:05:00;2.03;;;1.83;;
5622;SDS011;2833;50.432;10.706;2023-04-19T11:07:25;4.13;;;3.73;;
5622;SDS011;2833;50.432;10.706;2023-04-19T11:09:51;4.67;;;3.10;;
5622;SDS011;2833;50.432;10.706;2023-04-19T11:12:17;4.80;;;3.10;;
5622;SDS011;2833;50.432;10.706;2023-04-19T11:14:44;2.47;;;2.20;;
5622;SDS011;2833;50.432;10.706;2023-04-19T11:17:51;7.23;;;4.30;;
5622;SDS011;2833;50.432;10.706;2023-04-19T11:19:58;6.80;;;3.27;;
5622;SDS011;2833;50.432;10.706;2023-04-19T11:22:30;3.23;;;2.70;;
5622;SDS011;2833;50.432;10.706;2023-04-19T11:25:03;2.83;;;2.50;;
5622;SDS011;2833;50.432;10.706;2023-04-19T11:27:28;4.20;;;3.37;;
5622;SDS011;2833;50.432;10.706;2023-04-19T11:30:00;5.03;;;3.63;;
5622;SDS011;2833;50.432;10.706;2023-04-19T11:32:25;6.97;;;4.23;;
5622;SDS011;2833;50.432;10.706;2023-04-19T11:34:50;1.23;;;1.10;;
5622;SDS011;2833;50.432;10.706;2023-04-19T11:37:15;6.37;;;3.50;;
5622;SDS011;2833;50.432;10.706;2023-04-19T11:39:44;10.60;;;5.20;;
5622;SDS011;2833;50.432;10.706;2023-04-19T11:42:15;4.00;;;2.73;;
5622;SDS011;2833;50.432;10.706;2023-04-19T11:44:47;2.17;;;1.90;;
5622;SDS011;2833;50.432;10.706;2023-04-19T11:47:12;1.70;;;1.60;;
5622;SDS011;2833;50.432;10.706;2023-04-19T11:49:37;5.60;;;3.80;;
5622;SDS011;2833;50.432;10.706;2023-04-19T11:52:04;6.67;;;4.00;;
5622;SDS011;2833;50.432;10.706;2023-04-19T11:54:29;4.60;;;2.03;;
5622;SDS011;2833;50.432;10.706;2023-04-19T11:57:04;3.17;;;2.87;;
5622;SDS011;2833;50.432;10.706;2023-04-19T11:59:33;7.37;;;4.90;;
5622;SDS011;2833;50.432;10.706;2023-04-19T12:02:09;3.40;;;2.87;;
5622;SDS011;2833;50.432;10.706;2023-04-19T12:04:34;7.60;;;2.80;;
5622;SDS011;2833;50.432;10.706;2023-04-19T12:07:00;5.37;;;4.13;;
5622;SDS011;2833;50.432;10.706;2023-04-19T12:09:25;11.20;;;4.37;;
5622;SDS011;2833;50.432;10.706;2023-04-19T12:11:51;7.93;;;4.60;;
5622;SDS011;2833;50.432;10.706;2023-04-19T12:14:17;6.80;;;2.87;;
5622;SDS011;2833;50.432;10.706;2023-04-19T12:16:45;6.23;;;3.87;;
5622;SDS011;2833;50.432;10.706;2023-04-19T12:19:11;4.73;;;2.20;;
5622;SDS011;2833;50.432;10.706;2023-04-19T12:21:41;9.33;;;5.10;;
5622;SDS011;2833;50.432;10.706;2023-04-19T12:24:06;7.07;;;3.70;;
5622;SDS011;2833;50.432;10.706;2023-04-19T12:26:32;5.87;;;3.07;;
5622;SDS011;2833;50.432;10.706;2023-04-19T12:28:57;5.40;;;3.93;;
5622;SDS011;2833;50.432;10.706;2023-04-19T12:31:23;8.90;;;4.50;;
5622;SDS011;2833;50.432;10.706;2023-04-19T12:33:48;6.23;;;2.70;;
5622;SDS011;2833;50.432;10.706;2023-04-19T12:36:13;9.70;;;3.80;;
5622;SDS011;2833;50.432;10.706;2023-04-19T12:38:39;4.43;;;2.97;;
5622;SDS011;2833;50.432;10.706;2023-04-19T12:41:04;1.87;;;1.77;;
5622;SDS011;2833;50.432;10.706;2023-04-19T12:43:30;7.77;;;5.33;;
5622;SDS011;2833;50.432;10.706;2023-04-19T12:45:55;5.37;;;4.20;;
5622;SDS011;2833;50.432;10.706;2023-04-19T12:48:22;7.07;;;3.47;;
5622;SDS011;2833;50.432;10.706;2023-04-19T12:50:47;3.30;;;2.97;;
5622;SDS011;2833;50.432;10.706;2023-04-19T12:53:12;10.20;;;4.03;;
5622;SDS011;2833;50.432;10.706;2023-04-19T12:55:37;6.87;;;4.00;;
5622;SDS011;2833;50.432;10.706;2023-04-19T12:58:02;10.77;;;5.47;;
5622;SDS011;2833;50.432;10.706;2023-04-19T13:00:28;4.73;;;4.07;;
5622;SDS011;2833;50.432;10.706;2023-04-19T13:02:54;4.03;;;3.13;;
5622;SDS011;2833;50.432;10.706;2023-04-19T13:05:19;5.70;;;4.20;;
5622;SDS011;2833;50.432;10.706;2023-04-19T13:07:45;3.10;;;2.60;;
5622;SDS011;2833;50.432;10.706;2023-04-19T13:10:11;4.83;;;2.80;;
5622;SDS011;2833;50.432;10.706;2023-04-19T13:12:36;3.40;;;2.90;;
5622;SDS011;2833;50.432;10.706;2023-04-19T13:15:01;23.03;;;9.30;;
5622;SDS011;2833;50.432;10.706;2023-04-19T13:17:26;3.73;;;3.20;;
5622;SDS011;2833;50.432;10.706;2023-04-19T13:19:52;6.40;;;4.70;;
5622;SDS011;2833;50.432;10.706;2023-04-19T13:22:17;8.97;;;4.93;;
5622;SDS011;2833;50.432;10.706;2023-04-19T13:24:42;4.20;;;3.80;;
5622;SDS011;2833;50.432;10.706;2023-04-19T13:27:07;3.90;;;2.30;;
5622;SDS011;2833;50.432;10.706;2023-04-19T13:29:33;5.20;;;3.13;;
5622;SDS011;2833;50.432;10.706;2023-04-19T13:31:58;3.13;;;2.50;;
5622;SDS011;2833;50.432;10.706;2023-04-19T13:34:23;4.30;;;2.53;;
5622;SDS011;2833;50.432;10.706;2023-04-19T13:36:48;8.63;;;4.00;;
5622;SDS011;2833;50.432;10.706;2023-04-19T13:39:13;6.67;;;3.30;;
5622;SDS011;2833;50.432;10.706;2023-04-19T13:41:39;4.67;;;3.00;;
5622;SDS011;2833;50.432;10.706;2023-04-19T13:44:05;4.17;;;3.10;;
5622;SDS011;2833;50.432;10.706;2023-04-19T13:46:30;4.20;;;3.47;;
5622;SDS011;2833;50.432;10.706;2023-04-19T13:48:56;4.53;;;4.07;;
5622;SDS011;2833;50.432;10.706;2023-04-19T13:51:21;12.80;;;3.23;;
5622;SDS011;2833;50.432;10.706;2023-04-19T13:53:47;5.57;;;3.43;;
5622;SDS011;2833;50.432;10.706;2023-04-19T13:56:12;3.33;;;2.03;;
5622;SDS011;2833;50.432;10.706;2023-04-19T13:58:37;2.60;;;2.40;;
5622;SDS011;2833;50.432;10.706;2023-04-19T14:01:02;6.63;;;4.87;;
5622;SDS011;2833;50.432;10.706;2023-04-19T14:03:28;8.63;;;5.57;;
5622;SDS011;2833;50.432;10.706;2023-04-19T14:05:53;11.20;;;6.63;;
5622;SDS011;2833;50.432;10.706;2023-04-19T14:08:18;5.73;;;4.03;;
5622;SDS011;2833;50.432;10.706;2023-04-19T14:10:43;2.40;;;2.20;;
5622;SDS011;2833;50.432;10.706;2023-04-19T14:13:09;7.10;;;4.27;;
5622;SDS011;2833;50.432;10.706;2023-04-19T14:15:34;6.50;;;4.67;;
5622;SDS011;2833;50.432;10.706;2023-04-19T14:17:59;2.97;;;2.50;;
5622;SDS011;2833;50.432;10.706;2023-04-19T14:20:24;7.10;;;4.97;;
5622;SDS011;2833;50.432;10.706;2023-04-19T14:22:49;6.10;;;4.53;;
5622;SDS011;2833;50.432;10.706;2023-04-19T14:25:15;5.53;;;3.80;;
5622;SDS011;2833;50.432;10.706;2023-04-19T14:27:41;3.90;;;3.50;;
5622;SDS011;2833;50.432;10.706;2023-04-19T14:30:07;3.23;;;2.40;;
5622;SDS011;2833;50.432;10.706;2023-04-19T14:32:32;5.73;;;4.00;;
5622;SDS011;2833;50.432;10.706;2023-04-19T14:34:58;4.63;;;4.17;;
5622;SDS011;2833;50.432;10.706;2023-04-19T14:37:23;5.87;;;4.40;;
5622;SDS011;2833;50.432;10.706;2023-04-19T14:39:48;5.83;;;3.87;;
5622;SDS011;2833;50.432;10.706;2023-04-19T14:42:13;4.80;;;4.10;;
5622;SDS011;2833;50.432;10.706;2023-04-19T14:44:39;9.07;;;5.07;;
5622;SDS011;2833;50.432;10.706;2023-04-19T14:47:04;4.47;;;3.00;;
5622;SDS011;2833;50.432;10.706;2023-04-19T14:49:29;7.90;;;5.30;;
5622;SDS011;2833;50.432;10.706;2023-04-19T14:51:54;5.37;;;3.80;;
5622;SDS011;2833;50.432;10.706;2023-04-19T14:54:20;5.60;;;4.00;;